createdAt,value
2023-05-06T00:01:01.585Z,100.00
2023-05-06T00:03:28.995Z,100.00
2023-05-06T00:05:59.116Z,100.00
2023-05-06T00:08:26.617Z,100.00
2023-05-06T00:10:54.106Z,100.00
2023-05-06T00:13:21.330Z,100.00
2023-05-06T00:15:48.442Z,100.00
2023-05-06T00:18:15.615Z,100.00
2023-05-06T00:20:43.171Z,100.00
2023-05-06T00:23:10.250Z,100.00
2023-05-06T00:25:37.202Z,100.00
2023-05-06T00:28:04.490Z,100.00
2023-05-06T00:30:37.043Z,100.00
2023-05-06T00:33:04.154Z,100.00
2023-05-06T00:35:34.218Z,100.00
2023-05-06T00:38:13.397Z,100.00
2023-05-06T00:40:43.165Z,100.00
2023-05-06T00:43:10.503Z,100.00
2023-05-06T00:45:40.057Z,100.00
2023-05-06T00:48:38.974Z,100.00
2023-05-06T00:51:06.073Z,100.00
2023-05-06T00:53:37.912Z,100.00
2023-05-06T00:56:05.660Z,100.00
2023-05-06T00:58:34.319Z,100.00
2023-05-06T01:01:04.410Z,100.00
2023-05-06T01:03:38.246Z,100.00
2023-05-06T01:09:47.607Z,100.00
2023-05-06T01:15:23.218Z,100.00
2023-05-06T01:17:57.490Z,100.00
2023-05-06T01:20:31.241Z,100.00
2023-05-06T01:22:58.479Z,100.00
2023-05-06T01:25:25.627Z,100.00
2023-05-06T01:27:52.923Z,100.00
2023-05-06T01:30:23.007Z,100.00
2023-05-06T01:32:49.959Z,100.00
2023-05-06T01:35:48.531Z,100.00
2023-05-06T01:38:34.221Z,100.00
2023-05-06T01:41:03.191Z,100.00
2023-05-06T01:43:35.162Z,100.00
2023-05-06T01:46:03.529Z,100.00
2023-05-06T01:48:35.713Z,100.00
2023-05-06T01:51:03.449Z,100.00
2023-05-06T01:53:30.419Z,100.00
2023-05-06T01:55:57.333Z,100.00
2023-05-06T01:58:24.071Z,100.00
2023-05-06T02:00:51.058Z,100.00
2023-05-06T02:03:17.868Z,100.00
2023-05-06T02:05:50.173Z,100.00
2023-05-06T02:08:27.234Z,100.00
2023-05-06T02:10:54.218Z,100.00
2023-05-06T02:13:30.468Z,100.00
2023-05-06T02:15:57.637Z,100.00
2023-05-06T02:18:25.800Z,100.00
2023-05-06T02:20:53.578Z,100.00
2023-05-06T02:23:20.935Z,100.00
2023-05-06T02:25:52.117Z,100.00
2023-05-06T02:28:19.521Z,100.00
2023-05-06T02:30:53.709Z,100.00
2023-05-06T02:33:22.530Z,100.00
2023-05-06T02:35:59.895Z,100.00
2023-05-06T02:38:27.123Z,100.00
2023-05-06T02:40:54.130Z,100.00
2023-05-06T02:43:21.015Z,100.00
2023-05-06T02:45:48.143Z,100.00
2023-05-06T02:48:15.218Z,100.00
2023-05-06T02:50:42.150Z,100.00
2023-05-06T02:53:10.802Z,100.00
2023-05-06T02:55:43.044Z,100.00
2023-05-06T02:58:13.643Z,100.00
2023-05-06T03:00:40.499Z,100.00
2023-05-06T03:03:07.366Z,100.00
2023-05-06T03:05:34.612Z,100.00
2023-05-06T03:08:02.669Z,100.00
2023-05-06T03:10:40.374Z,100.00
2023-05-06T03:13:11.141Z,100.00
2023-05-06T03:15:38.154Z,100.00
2023-05-06T03:18:05.116Z,100.00
2023-05-06T03:20:34.541Z,100.00
2023-05-06T03:23:07.201Z,100.00
2023-05-06T03:25:34.563Z,100.00
2023-05-06T03:28:03.159Z,100.00
2023-05-06T03:33:13.878Z,100.00
2023-05-06T03:35:41.217Z,100.00
2023-05-06T03:38:08.347Z,100.00
2023-05-06T03:40:35.881Z,100.00
2023-05-06T03:43:02.887Z,100.00
2023-05-06T03:45:29.922Z,100.00
2023-05-06T03:47:58.475Z,100.00
2023-05-06T03:50:33.640Z,100.00
2023-05-06T03:53:01.126Z,100.00
2023-05-06T03:55:31.368Z,100.00
2023-05-06T03:57:58.402Z,100.00
2023-05-06T04:00:26.771Z,100.00
2023-05-06T04:02:53.913Z,100.00
2023-05-06T04:05:21.160Z,100.00
2023-05-06T04:07:49.353Z,100.00
2023-05-06T04:10:16.576Z,100.00
2023-05-06T04:12:46.551Z,100.00
2023-05-06T04:15:19.043Z,100.00
2023-05-06T04:17:55.261Z,100.00
2023-05-06T04:20:24.068Z,100.00
2023-05-06T04:22:51.287Z,100.00
2023-05-06T04:25:20.370Z,100.00
2023-05-06T04:27:51.211Z,100.00
2023-05-06T04:30:22.913Z,100.00
2023-05-06T04:32:50.623Z,100.00
2023-05-06T04:35:23.324Z,100.00
2023-05-06T04:37:50.682Z,97.81
2023-05-06T04:40:27.809Z,95.82
2023-05-06T04:42:56.213Z,91.92
2023-05-06T04:47:58.339Z,89.84
2023-05-06T04:50:25.030Z,86.12
2023-05-06T04:55:50.078Z,82.89
2023-05-06T04:58:20.859Z,83.88
2023-05-06T05:00:48.290Z,81.68
2023-05-06T05:03:21.688Z,80.65
2023-05-06T05:06:01.596Z,79.87
2023-05-06T05:08:38.531Z,80.10
2023-05-06T05:11:12.000Z,84.85
2023-05-06T05:13:39.432Z,86.07
2023-05-06T05:16:06.627Z,75.44
2023-05-06T05:18:38.290Z,73.50
2023-05-06T05:21:05.255Z,68.20
2023-05-06T05:23:32.640Z,64.89
2023-05-06T05:25:59.532Z,70.15
2023-05-06T05:28:29.432Z,69.24
2023-05-06T05:31:02.188Z,65.19
2023-05-06T05:33:28.866Z,69.45
2023-05-06T05:35:55.781Z,67.34
2023-05-06T05:38:22.413Z,65.04
2023-05-06T05:40:49.192Z,65.72
2023-05-06T05:43:15.939Z,64.95
2023-05-06T05:45:45.875Z,62.03
2023-05-06T05:48:12.512Z,58.92
2023-05-06T05:50:39.837Z,55.23
2023-05-06T05:53:06.752Z,56.72
2023-05-06T05:55:33.566Z,55.24
2023-05-06T05:58:00.417Z,54.91
2023-05-06T06:00:27.118Z,55.37
2023-05-06T06:02:53.829Z,57.38
2023-05-06T06:05:20.832Z,55.20
2023-05-06T06:07:54.043Z,55.35
2023-05-06T06:10:20.870Z,55.76
2023-05-06T06:12:47.691Z,59.12
2023-05-06T06:15:14.554Z,55.62
2023-05-06T06:17:41.649Z,53.55
2023-05-06T06:20:09.171Z,54.38
2023-05-06T06:22:35.964Z,55.29
2023-05-06T06:25:02.607Z,58.09
2023-05-06T06:27:29.523Z,60.28
2023-05-06T06:29:56.305Z,60.64
2023-05-06T06:32:23.092Z,60.53
2023-05-06T06:34:50.848Z,62.47
2023-05-06T06:37:17.755Z,61.16
2023-05-06T06:39:44.413Z,58.42
2023-05-06T06:42:11.160Z,60.13
2023-05-06T06:44:37.957Z,56.00
2023-05-06T06:47:04.833Z,57.69
2023-05-06T06:49:32.253Z,57.12
2023-05-06T06:51:58.972Z,58.51
2023-05-06T06:54:25.920Z,55.83
2023-05-06T06:56:58.537Z,53.56
2023-05-06T06:59:25.543Z,55.49
2023-05-06T07:01:52.172Z,55.79
2023-05-06T07:04:19.318Z,54.69
2023-05-06T07:06:46.545Z,57.89
2023-05-06T07:09:13.481Z,53.63
2023-05-06T07:11:40.362Z,56.54
2023-05-06T07:14:07.356Z,52.88
2023-05-06T07:16:34.330Z,55.26
2023-05-06T07:19:01.394Z,55.27
2023-05-06T07:21:28.470Z,57.56
2023-05-06T07:23:55.277Z,55.26
2023-05-06T07:26:22.124Z,54.53
2023-05-06T07:28:49.048Z,52.57
2023-05-06T07:31:16.444Z,51.59
2023-05-06T07:33:43.162Z,54.20
2023-05-06T07:36:10.168Z,51.81
2023-05-06T07:38:36.950Z,51.56
2023-05-06T07:41:03.821Z,50.13
2023-05-06T07:43:30.540Z,48.60
2023-05-06T07:46:02.886Z,49.80
2023-05-06T07:48:31.081Z,49.31
2023-05-06T07:50:58.088Z,48.72
2023-05-06T07:53:25.103Z,48.19
2023-05-06T07:55:53.312Z,48.32
2023-05-06T07:58:20.328Z,48.29
2023-05-06T08:00:47.012Z,46.41
2023-05-06T08:03:17.272Z,45.81
2023-05-06T08:05:44.390Z,44.91
2023-05-06T08:08:11.147Z,45.39
2023-05-06T08:10:38.579Z,44.50
2023-05-06T08:13:05.533Z,43.02
2023-05-06T08:15:32.856Z,43.62
2023-05-06T08:18:06.979Z,43.79
2023-05-06T08:20:42.625Z,43.91
2023-05-06T08:23:09.986Z,42.15
2023-05-06T08:25:36.892Z,42.70
2023-05-06T08:28:04.791Z,40.48
2023-05-06T08:30:31.724Z,41.97
2023-05-06T08:32:58.422Z,41.04
2023-05-06T08:35:25.467Z,40.71
2023-05-06T08:37:52.130Z,41.97
2023-05-06T08:40:22.534Z,43.34
2023-05-06T08:43:03.577Z,45.51
2023-05-06T08:48:54.969Z,45.58
2023-05-06T08:51:29.457Z,44.19
2023-05-06T08:54:02.616Z,43.46
2023-05-06T08:56:32.933Z,42.80
2023-05-06T08:59:01.526Z,41.20
2023-05-06T09:01:29.037Z,40.73
2023-05-06T09:03:58.269Z,42.34
2023-05-06T09:06:25.390Z,42.55
2023-05-06T09:08:52.190Z,41.17
2023-05-06T09:11:29.818Z,40.98
2023-05-06T09:14:17.590Z,41.46
2023-05-06T09:16:47.833Z,42.43
2023-05-06T09:19:15.921Z,41.71
2023-05-06T09:21:45.069Z,39.92
2023-05-06T09:24:13.486Z,39.18
2023-05-06T09:26:41.754Z,37.94
2023-05-06T09:29:08.945Z,38.31
2023-05-06T09:31:41.991Z,38.61
2023-05-06T09:34:09.087Z,37.81
2023-05-06T09:36:36.620Z,38.12
2023-05-06T09:39:04.764Z,38.07
2023-05-06T09:41:31.627Z,38.51
2023-05-06T09:43:59.344Z,38.55
2023-05-06T09:46:28.020Z,38.03
2023-05-06T09:48:58.038Z,39.38
2023-05-06T09:51:27.819Z,39.16
2023-05-06T09:53:56.668Z,39.58
2023-05-06T09:56:23.905Z,39.59
2023-05-06T09:58:52.555Z,39.83
2023-05-06T10:01:32.696Z,39.34
2023-05-06T10:04:06.276Z,40.07
2023-05-06T10:06:35.804Z,38.81
2023-05-06T10:09:02.777Z,38.86
2023-05-06T10:11:31.890Z,40.02
2023-05-06T10:14:00.687Z,39.18
2023-05-06T10:16:28.671Z,37.96
2023-05-06T10:18:56.128Z,38.89
2023-05-06T10:21:27.650Z,36.94
2023-05-06T10:24:07.249Z,36.55
2023-05-06T10:26:37.702Z,37.64
2023-05-06T10:29:09.962Z,37.33
2023-05-06T10:31:45.301Z,37.12
2023-05-06T10:34:12.502Z,36.07
2023-05-06T10:36:42.110Z,35.11
2023-05-06T10:39:10.450Z,36.36
2023-05-06T10:41:37.821Z,36.05
2023-05-06T10:44:06.188Z,35.05
2023-05-06T10:47:05.917Z,34.47
2023-05-06T10:49:32.647Z,35.53
2023-05-06T10:52:15.302Z,35.22
2023-05-06T10:54:52.088Z,35.94
2023-05-06T10:57:22.043Z,37.41
2023-05-06T10:59:49.291Z,36.92
2023-05-06T11:02:20.007Z,38.98
2023-05-06T11:04:52.576Z,36.93
2023-05-06T11:07:23.610Z,35.40
2023-05-06T11:09:59.114Z,38.23
2023-05-06T11:12:52.590Z,38.16
2023-05-06T11:15:26.863Z,38.04
2023-05-06T11:17:57.083Z,39.56
2023-05-06T11:20:26.574Z,39.29
2023-05-06T11:22:54.112Z,36.96
2023-05-06T11:25:41.382Z,37.84
2023-05-06T11:28:10.500Z,37.73
2023-05-06T11:30:41.268Z,36.53
2023-05-06T11:33:09.580Z,36.12
2023-05-06T11:35:37.994Z,36.30
2023-05-06T11:38:04.972Z,36.95
2023-05-06T11:40:32.321Z,35.93
2023-05-06T11:43:15.248Z,36.23
2023-05-06T11:45:44.953Z,37.06
2023-05-06T11:48:15.929Z,38.25
2023-05-06T11:50:47.766Z,39.77
2023-05-06T11:53:17.132Z,37.94
2023-05-06T11:55:45.082Z,38.34
2023-05-06T11:58:16.867Z,36.76
2023-05-06T12:00:53.037Z,38.61
2023-05-06T12:03:21.050Z,36.95
2023-05-06T12:05:49.035Z,36.61
2023-05-06T12:08:26.609Z,35.97
2023-05-06T12:10:58.112Z,34.29
2023-05-06T12:13:25.109Z,33.37
2023-05-06T12:15:55.117Z,34.40
2023-05-06T12:18:23.685Z,32.87
2023-05-06T12:20:50.547Z,32.95
2023-05-06T12:23:37.376Z,33.08
2023-05-06T12:26:06.358Z,34.23
2023-05-06T12:28:36.378Z,34.36
2023-05-06T12:31:19.520Z,33.80
2023-05-06T12:33:49.160Z,32.80
2023-05-06T12:36:16.539Z,33.25
2023-05-06T12:39:13.145Z,35.24
2023-05-06T12:41:42.512Z,35.18
2023-05-06T12:44:35.444Z,35.87
2023-05-06T12:47:23.747Z,35.66
2023-05-06T12:49:59.280Z,34.84
2023-05-06T12:52:29.661Z,36.18
2023-05-06T12:54:57.221Z,36.70
2023-05-06T12:57:24.379Z,35.85
2023-05-06T12:59:51.085Z,36.21
2023-05-06T13:02:17.933Z,36.85
2023-05-06T13:04:46.941Z,35.37
2023-05-06T13:07:13.866Z,34.74
2023-05-06T13:09:42.287Z,35.07
2023-05-06T13:12:09.243Z,35.59
2023-05-06T13:14:38.441Z,35.66
2023-05-06T13:17:07.172Z,36.84
2023-05-06T13:19:34.593Z,35.38
2023-05-06T13:22:02.083Z,35.87
2023-05-06T13:24:29.681Z,36.77
2023-05-06T13:26:57.597Z,36.82
2023-05-06T13:29:24.832Z,37.12
2023-05-06T13:31:52.171Z,36.85
2023-05-06T13:34:21.638Z,38.31
2023-05-06T13:36:49.564Z,35.81
2023-05-06T13:39:17.005Z,36.04
2023-05-06T13:41:49.896Z,36.37
2023-05-06T13:44:17.380Z,35.59
2023-05-06T13:46:46.222Z,35.98
2023-05-06T13:49:27.940Z,34.40
2023-05-06T13:51:54.752Z,35.47
2023-05-06T13:54:22.912Z,34.42
2023-05-06T13:56:49.818Z,35.01
2023-05-06T13:59:16.541Z,34.43
2023-05-06T14:01:43.592Z,33.08
2023-05-06T14:04:10.555Z,33.06
2023-05-06T14:06:38.254Z,34.00
2023-05-06T14:09:05.175Z,33.41
2023-05-06T14:11:32.072Z,33.29
2023-05-06T14:13:58.790Z,33.56
2023-05-06T14:16:27.091Z,33.19
2023-05-06T14:18:53.894Z,34.68
2023-05-06T14:21:20.989Z,35.64
2023-05-06T14:23:47.655Z,35.33
2023-05-06T14:26:14.494Z,34.73
2023-05-06T14:28:41.142Z,34.23
2023-05-06T14:31:08.293Z,33.97
2023-05-06T14:33:35.242Z,34.83
2023-05-06T14:36:03.528Z,35.98
2023-05-06T14:38:31.016Z,35.15
2023-05-06T14:40:59.459Z,33.64
2023-05-06T14:43:26.397Z,34.97
2023-05-06T14:45:54.686Z,33.65
2023-05-06T14:48:21.726Z,34.27
2023-05-06T14:50:48.518Z,33.15
2023-05-06T14:53:15.177Z,33.57
2023-05-06T14:55:42.215Z,35.35
2023-05-06T14:58:09.173Z,33.84
2023-05-06T15:00:36.472Z,34.08
2023-05-06T15:03:03.518Z,34.97
2023-05-06T15:05:30.299Z,36.48
2023-05-06T15:08:10.452Z,36.20
2023-05-06T15:10:41.305Z,35.51
2023-05-06T15:13:11.152Z,34.91
2023-05-06T15:18:22.317Z,34.75
2023-05-06T15:21:08.030Z,34.90
2023-05-06T15:23:36.042Z,35.25
2023-05-06T15:26:27.042Z,34.35
2023-05-06T15:28:53.925Z,34.49
2023-05-06T15:31:20.687Z,34.42
2023-05-06T15:33:58.310Z,35.00
2023-05-06T15:36:27.678Z,34.61
2023-05-06T15:39:19.863Z,34.82
2023-05-06T15:41:48.290Z,34.88
2023-05-06T15:44:16.396Z,35.09
2023-05-06T15:46:43.649Z,35.25
2023-05-06T15:49:31.936Z,35.61
2023-05-06T15:52:00.571Z,34.89
2023-05-06T15:54:28.073Z,35.18
2023-05-06T15:56:55.188Z,34.98
2023-05-06T15:59:22.020Z,35.50
2023-05-06T16:04:19.373Z,34.75
2023-05-06T16:06:46.287Z,34.93
2023-05-06T16:09:13.235Z,34.54
2023-05-06T16:11:42.251Z,34.40
2023-05-06T16:14:15.481Z,34.72
2023-05-06T16:16:42.535Z,34.74
2023-05-06T16:19:17.751Z,35.13
2023-05-06T16:21:44.614Z,35.23
2023-05-06T16:24:11.381Z,35.36
2023-05-06T16:26:47.348Z,35.34
2023-05-06T16:29:16.246Z,36.10
2023-05-06T16:31:43.393Z,36.19
2023-05-06T16:34:10.346Z,36.10
2023-05-06T16:36:40.292Z,35.93
2023-05-06T16:39:08.396Z,35.91
2023-05-06T16:41:35.298Z,35.38
2023-05-06T16:44:09.367Z,35.44
2023-05-06T16:46:36.162Z,35.79
2023-05-06T16:49:06.594Z,35.39
2023-05-06T16:51:33.476Z,36.14
2023-05-06T16:54:00.209Z,36.59
2023-05-06T16:56:32.940Z,36.47
2023-05-06T16:59:13.250Z,36.80
2023-05-06T17:01:40.169Z,37.33
2023-05-06T17:04:07.070Z,36.91
2023-05-06T17:06:34.097Z,37.46
2023-05-06T17:09:07.048Z,38.19
2023-05-06T17:11:33.932Z,38.32
2023-05-06T17:14:01.053Z,37.82
2023-05-06T17:16:28.022Z,38.33
2023-05-06T17:19:01.810Z,38.53
2023-05-06T17:21:29.857Z,39.23
2023-05-06T17:23:56.508Z,39.56
2023-05-06T17:26:23.225Z,38.00
2023-05-06T17:28:51.122Z,38.29
2023-05-06T17:31:18.455Z,39.30
2023-05-06T17:33:52.959Z,40.28
2023-05-06T17:39:05.058Z,42.50
2023-05-06T17:41:32.386Z,42.64
2023-05-06T17:43:59.772Z,43.13
2023-05-06T17:46:27.005Z,44.07
2023-05-06T17:51:37.120Z,44.97
2023-05-06T17:54:03.990Z,46.04
2023-05-06T17:56:31.051Z,44.06
2023-05-06T17:59:05.026Z,43.57
2023-05-06T18:01:32.517Z,43.19
2023-05-06T18:04:03.925Z,44.36
2023-05-06T18:06:31.319Z,42.68
2023-05-06T18:09:00.846Z,43.36
2023-05-06T18:11:28.041Z,42.95
2023-05-06T18:13:54.819Z,42.69
2023-05-06T18:16:21.864Z,43.40
2023-05-06T18:18:59.696Z,44.33
2023-05-06T18:21:37.429Z,44.54
2023-05-06T18:24:16.138Z,44.64
2023-05-06T18:26:46.046Z,45.22
2023-05-06T18:29:13.500Z,44.88
2023-05-06T18:31:40.364Z,45.15
2023-05-06T18:34:07.424Z,45.13
2023-05-06T18:36:37.927Z,46.78
2023-05-06T18:39:05.000Z,48.16
2023-05-06T18:41:33.245Z,47.48
2023-05-06T18:44:00.507Z,48.69
2023-05-06T18:46:27.806Z,48.08
2023-05-06T18:48:58.177Z,48.32
2023-05-06T18:51:25.253Z,48.86
2023-05-06T18:53:53.876Z,48.40
2023-05-06T18:56:21.555Z,48.22
2023-05-06T18:58:53.111Z,47.88
2023-05-06T19:01:21.406Z,49.54
2023-05-06T19:03:49.701Z,49.72
2023-05-06T19:06:21.285Z,50.25
2023-05-06T19:08:48.882Z,50.20
2023-05-06T19:11:20.858Z,51.25
2023-05-06T19:13:48.443Z,52.04
2023-05-06T19:16:15.576Z,51.81
2023-05-06T19:18:44.824Z,51.78
2023-05-06T19:21:13.048Z,51.62
2023-05-06T19:23:40.000Z,55.18
2023-05-06T19:26:15.025Z,52.71
2023-05-06T19:28:45.584Z,51.87
2023-05-06T19:31:15.540Z,52.31
2023-05-06T19:33:45.861Z,51.86
2023-05-06T19:36:16.431Z,51.32
2023-05-06T19:38:43.788Z,51.62
2023-05-06T19:41:19.678Z,53.48
2023-05-06T19:43:47.241Z,53.76
2023-05-06T19:46:16.891Z,54.06
2023-05-06T19:48:45.273Z,54.72
2023-05-06T19:51:13.308Z,53.66
2023-05-06T19:53:40.630Z,54.12
2023-05-06T19:56:12.678Z,53.27
2023-05-06T19:58:40.752Z,54.31
2023-05-06T20:01:08.041Z,54.49
2023-05-06T20:03:41.764Z,56.30
2023-05-06T20:06:10.161Z,56.34
2023-05-06T20:08:46.360Z,55.39
2023-05-06T20:11:13.194Z,54.73
2023-05-06T20:13:43.926Z,54.13
2023-05-06T20:16:11.522Z,54.58
2023-05-06T20:18:40.680Z,55.72
2023-05-06T20:21:07.650Z,55.16
2023-05-06T20:23:34.454Z,55.46
2023-05-06T20:26:01.177Z,54.60
2023-05-06T20:28:28.309Z,55.61
2023-05-06T20:30:57.131Z,56.86
2023-05-06T20:33:23.845Z,55.12
2023-05-06T20:35:51.071Z,55.91
2023-05-06T20:38:20.224Z,55.29
2023-05-06T20:40:49.597Z,55.03
2023-05-06T20:43:17.408Z,54.98
2023-05-06T20:45:46.403Z,56.42
2023-05-06T20:48:15.001Z,56.89
2023-05-06T20:50:42.156Z,56.47
2023-05-06T20:53:22.971Z,55.23
2023-05-06T20:55:55.557Z,55.54
2023-05-06T20:58:29.654Z,55.94
2023-05-06T21:00:57.705Z,56.12
2023-05-06T21:03:25.900Z,57.14
2023-05-06T21:05:52.856Z,57.76
2023-05-06T21:08:20.789Z,58.09
2023-05-06T21:10:56.407Z,59.24
2023-05-06T21:13:23.897Z,58.61
2023-05-06T21:15:50.912Z,58.67
2023-05-06T21:18:40.631Z,57.20
2023-05-06T21:21:07.452Z,58.33
2023-05-06T21:23:35.738Z,58.40
2023-05-06T21:26:02.595Z,57.46
2023-05-06T21:28:29.377Z,55.69
2023-05-06T21:30:56.260Z,56.22
2023-05-06T21:33:23.095Z,56.71
2023-05-06T21:35:52.861Z,56.84
2023-05-06T21:38:19.640Z,55.86
2023-05-06T21:40:46.503Z,58.04
2023-05-06T21:43:18.086Z,58.41
2023-05-06T21:45:45.078Z,58.01
2023-05-06T21:48:12.106Z,58.26
2023-05-06T21:50:43.618Z,60.33
2023-05-06T21:53:10.684Z,61.30
2023-05-06T21:55:37.642Z,62.43
2023-05-06T21:58:04.489Z,65.19
2023-05-06T22:00:31.326Z,65.64
2023-05-06T22:02:59.003Z,65.77
2023-05-06T22:05:26.192Z,64.94
2023-05-06T22:07:53.152Z,62.67
2023-05-06T22:10:20.176Z,61.82
2023-05-06T22:12:47.104Z,62.87
2023-05-06T22:15:17.645Z,63.26
2023-05-06T22:17:44.581Z,64.53
2023-05-06T22:20:11.702Z,65.76
2023-05-06T22:22:38.581Z,65.73
2023-05-06T22:25:06.040Z,64.21
2023-05-06T22:27:33.076Z,63.13
2023-05-06T22:30:00.180Z,65.15
2023-05-06T22:32:27.419Z,65.57
2023-05-06T22:34:54.350Z,64.71
2023-05-06T22:37:21.305Z,64.49
2023-05-06T22:39:51.506Z,66.38
2023-05-06T22:42:23.096Z,66.19
2023-05-06T22:44:53.788Z,68.02
2023-05-06T22:47:22.295Z,65.46
2023-05-06T22:49:51.082Z,63.98
2023-05-06T22:52:19.354Z,64.28
2023-05-06T22:54:46.203Z,64.11
2023-05-06T22:57:13.036Z,66.43
2023-05-06T22:59:39.949Z,65.92
2023-05-06T23:02:09.196Z,65.84
2023-05-06T23:04:35.953Z,68.16
2023-05-06T23:07:02.762Z,69.57
2023-05-06T23:09:29.481Z,67.48
2023-05-06T23:11:56.519Z,67.48
2023-05-06T23:14:23.446Z,69.07
2023-05-06T23:16:50.364Z,68.65
2023-05-06T23:19:17.255Z,70.54
2023-05-06T23:21:44.635Z,68.43
2023-05-06T23:24:14.508Z,70.38
2023-05-06T23:29:27.963Z,71.29
2023-05-06T23:31:54.763Z,72.64
2023-05-06T23:34:21.547Z,71.38
2023-05-06T23:36:48.469Z,71.75
2023-05-06T23:39:15.090Z,71.75
2023-05-06T23:41:42.095Z,70.29
2023-05-06T23:44:08.950Z,72.09
2023-05-06T23:46:35.817Z,71.91
2023-05-06T23:49:05.878Z,73.58
2023-05-06T23:51:32.905Z,72.80
2023-05-06T23:53:59.569Z,73.38
2023-05-06T23:56:33.327Z,75.56
2023-05-06T23:59:00.081Z,74.63
